General Aviation Weather

Text Reports

Enter one or more of the following location identifiers separated by a space:

Zip Code, Four-Character ICAO or Three-Character IATA airport codes.

METAR - Aviation Routine Weather Report
KOVE - Oroville, California
Updated at 12:53 AM GMT on December 29, 2014 (4:53 PM PST):
METAR KOVE 290053Z AUTO 34003KT 10SM CLR 09/03 A3025 RMK AO2 SLP246 T00940033
TAF - Terminal Area Forecast
KOVE - Oroville, California
Updated at 12:53 AM GMT on December 29, 2014 (4:53 PM PST):
No TAF is currently available for this location.
Decoded:
No decoded TAF is available.
PIREP - Pilot Weather Report
KOVE - Oroville, California
Updated at 12:53 AM GMT on December 29, 2014 (4:53 PM PST):
No PIREP is currently available for this location.
AIRMET - Airmens Meteorological Information
KOVE - Oroville, California
Updated at 12:53 AM GMT on December 29, 2014 (4:53 PM PST):
No AIRMET is currently available for this location.
SIGMET - Significant Meteorological Information
KOVE - Oroville, California
Updated at 12:53 AM GMT on December 29, 2014 (4:53 PM PST):
No SIGMET is currently available for this location.
NOTAM - Notice to Airmen
KOVE - Oroville, California
Updated at 12:53 AM GMT on December 29, 2014 (4:53 PM PST):
No NOTAM is currently available for this location.
Forecast Area
KOVE - Oroville, California
Updated at 12:53 AM GMT on December 29, 2014 (4:53 PM PST):
No NOTAM is currently available for this location.
Aviation Weather Maps